createdAt,value
2023-01-19T00:01:04.039Z,94962.09
2023-01-19T00:02:10.328Z,94955.31
2023-01-19T00:03:19.833Z,94956.28
2023-01-19T00:04:31.801Z,94955.44
2023-01-19T00:05:36.706Z,94963.06
2023-01-19T00:06:52.858Z,94953.75
2023-01-19T00:07:56.337Z,94960.47
2023-01-19T00:09:10.916Z,94963.88
2023-01-19T00:10:17.607Z,94963.09
2023-01-19T00:11:28.615Z,94963.88
2023-01-19T00:12:31.971Z,94971.44
2023-01-19T00:13:50.006Z,94970.56
2023-01-19T00:15:00.372Z,94966.41
2023-01-19T00:16:15.463Z,94972.28
2023-01-19T00:17:23.928Z,94977.28
2023-01-19T00:18:26.982Z,94973.91
2023-01-19T00:19:37.132Z,94979.88
2023-01-19T00:20:45.834Z,94976.44
2023-01-19T00:21:52.733Z,94972.31
2023-01-19T00:22:55.486Z,94969.84
2023-01-19T00:24:09.259Z,94977.47
2023-01-19T00:25:19.507Z,94976.66
2023-01-19T00:26:33.478Z,94979.22
2023-01-19T00:27:43.346Z,94975.78
2023-01-19T00:28:58.452Z,94982.53
2023-01-19T00:30:09.453Z,94982.63
2023-01-19T00:31:23.713Z,94982.69
2023-01-19T00:32:27.147Z,94985.28
2023-01-19T00:33:44.492Z,94979.19
2023-01-19T00:34:52.818Z,94985.19
2023-01-19T00:36:00.590Z,94985.19
2023-01-19T00:37:03.655Z,94985.34
2023-01-19T00:38:18.627Z,94992.97
2023-01-19T00:39:25.094Z,94990.59
2023-01-19T00:40:36.463Z,94988.03
2023-01-19T00:41:54.261Z,95002.28
2023-01-19T00:43:03.672Z,94999.94
2023-01-19T00:44:09.346Z,94997.31
2023-01-19T00:45:29.877Z,94993.78
2023-01-19T00:46:42.757Z,95001.41
2023-01-19T00:47:49.879Z,94996.47
2023-01-19T00:48:56.987Z,95002.47
2023-01-19T00:50:07.054Z,95006.69
2023-01-19T00:51:17.009Z,95005.91
2023-01-19T00:52:34.759Z,95001.72
2023-01-19T00:53:43.803Z,95008.41
2023-01-19T00:54:58.000Z,95007.50
2023-01-19T00:56:08.738Z,95005.09
2023-01-19T00:57:14.244Z,95006.09
2023-01-19T00:58:20.234Z,95017.97
2023-01-19T00:59:31.309Z,95012.97
2023-01-19T01:00:44.398Z,95016.28
2023-01-19T01:01:51.437Z,95017.97
2023-01-19T01:03:04.440Z,95017.94
2023-01-19T01:04:07.636Z,95017.22
2023-01-19T01:05:18.222Z,95008.81
2023-01-19T01:06:26.248Z,95016.44
2023-01-19T01:07:43.404Z,95022.28
2023-01-19T01:08:50.037Z,95018.09
2023-01-19T01:10:03.943Z,95010.53
2023-01-19T01:11:12.060Z,95012.94
2023-01-19T01:12:17.498Z,95016.41
2023-01-19T01:13:28.044Z,95011.22
2023-01-19T01:14:33.692Z,95010.31
2023-01-19T01:15:39.233Z,95011.09
2023-01-19T01:16:42.113Z,95007.81
2023-01-19T01:17:55.705Z,95018.00
2023-01-19T01:19:09.364Z,95018.13
2023-01-19T01:20:22.391Z,95011.41
2023-01-19T01:21:27.126Z,95008.16
2023-01-19T01:22:32.867Z,95015.78
2023-01-19T01:23:50.393Z,95019.06
2023-01-19T01:24:57.439Z,95013.94
2023-01-19T01:26:05.954Z,95018.97
2023-01-19T01:27:12.100Z,95024.09
2023-01-19T01:28:20.705Z,95020.78
2023-01-19T01:29:23.997Z,95020.88
2023-01-19T01:30:37.110Z,95021.72
2023-01-19T01:31:45.895Z,95020.03
2023-01-19T01:32:59.254Z,95017.59
2023-01-19T01:34:05.973Z,95022.69
2023-01-19T01:35:17.218Z,95020.22
2023-01-19T01:36:25.201Z,95029.47
2023-01-19T01:37:33.557Z,95018.59
2023-01-19T01:38:39.047Z,95020.31
2023-01-19T01:39:52.013Z,95016.09
2023-01-19T01:41:08.006Z,95020.34
2023-01-19T01:43:22.241Z,95025.44
2023-01-19T01:44:49.895Z,95021.25
2023-01-19T01:45:55.562Z,95022.94
2023-01-19T01:46:57.572Z,95020.44
2023-01-19T01:48:08.791Z,95026.34
2023-01-19T01:49:16.227Z,95030.53
2023-01-19T01:50:24.477Z,95022.16
2023-01-19T01:51:29.920Z,95022.97
2023-01-19T01:52:36.419Z,95026.34
2023-01-19T01:53:39.789Z,95018.78
2023-01-19T01:54:45.743Z,95017.94
2023-01-19T01:55:49.813Z,95023.84
2023-01-19T01:57:02.234Z,95030.59
2023-01-19T01:58:06.274Z,95027.22
2023-01-19T01:59:26.240Z,95025.53
2023-01-19T02:00:49.897Z,95027.22
2023-01-19T02:02:07.934Z,95033.97
2023-01-19T02:03:12.665Z,95029.75
2023-01-19T02:04:14.977Z,95029.75
2023-01-19T02:05:24.242Z,95023.88
2023-01-19T02:06:26.721Z,95036.50
2023-01-19T02:07:50.325Z,95028.91
2023-01-19T02:09:11.029Z,95035.63
2023-01-19T02:10:28.133Z,95032.28
2023-01-19T02:11:46.139Z,95034.78
2023-01-19T02:13:06.336Z,95041.53
2023-01-19T02:14:11.196Z,95039.81
2023-01-19T02:15:18.021Z,95039.81
2023-01-19T02:16:22.756Z,95035.63
2023-01-19T02:17:24.944Z,95035.63
2023-01-19T02:18:32.177Z,95044.91
2023-01-19T02:19:41.039Z,95036.44
2023-01-19T02:20:53.782Z,95043.19
2023-01-19T02:22:02.295Z,95042.31
2023-01-19T02:23:12.227Z,95046.50
2023-01-19T02:24:17.517Z,95043.19
2023-01-19T02:25:23.033Z,95045.69
2023-01-19T02:26:28.486Z,95035.63
2023-01-19T02:27:34.257Z,95041.47
2023-01-19T02:28:39.269Z,95045.66
2023-01-19T02:29:44.216Z,95045.63
2023-01-19T02:30:46.438Z,95047.28
2023-01-19T02:31:51.192Z,95047.31
2023-01-19T02:32:53.328Z,95046.47
2023-01-19T02:33:58.483Z,95049.84
2023-01-19T02:35:00.608Z,95053.25
2023-01-19T02:36:05.815Z,95044.00
2023-01-19T02:37:12.338Z,95052.41
2023-01-19T02:38:19.190Z,95063.34
2023-01-19T02:39:32.074Z,95057.47
2023-01-19T02:40:38.679Z,95056.63
2023-01-19T02:41:45.569Z,95060.00
2023-01-19T02:42:53.120Z,95052.44
2023-01-19T02:43:57.493Z,95044.88
2023-01-19T02:45:06.709Z,95054.13
2023-01-19T02:46:11.593Z,95053.28
2023-01-19T02:47:14.172Z,95050.78
2023-01-19T02:48:19.735Z,95050.78
2023-01-19T02:49:21.875Z,95049.09
2023-01-19T02:50:50.128Z,95050.78
2023-01-19T02:51:52.502Z,95052.47
2023-01-19T02:53:03.930Z,95047.41
2023-01-19T02:54:20.289Z,95056.69
2023-01-19T02:55:30.095Z,95049.13
2023-01-19T02:56:46.425Z,95049.13
2023-01-19T02:57:59.738Z,95049.97
2023-01-19T02:59:09.598Z,95050.78
2023-01-19T03:00:32.666Z,95040.72
2023-01-19T03:01:50.761Z,95047.44
2023-01-19T03:03:10.633Z,95049.94
2023-01-19T03:04:27.600Z,95046.59
2023-01-19T03:05:44.473Z,95054.97
2023-01-19T03:06:55.338Z,95055.81
2023-01-19T03:08:04.468Z,95051.63
2023-01-19T03:09:17.942Z,95059.19
2023-01-19T03:10:31.821Z,95054.94
2023-01-19T03:11:40.050Z,95061.69
2023-01-19T03:12:47.219Z,95062.50
2023-01-19T03:13:55.656Z,95062.53
2023-01-19T03:15:02.592Z,95065.84
2023-01-19T03:16:14.757Z,95058.28
2023-01-19T03:17:18.288Z,95063.28
2023-01-19T03:18:26.296Z,95065.75
2023-01-19T03:19:34.092Z,95063.16
2023-01-19T03:20:40.595Z,95058.91
2023-01-19T03:21:47.287Z,95063.81
2023-01-19T03:22:56.933Z,95060.28
2023-01-19T03:24:02.962Z,95056.88
2023-01-19T03:25:09.576Z,95059.34
2023-01-19T03:26:18.261Z,95055.03
2023-01-19T03:27:28.176Z,95063.44
2023-01-19T03:28:30.777Z,95064.19
2023-01-19T03:29:37.698Z,95058.28
2023-01-19T03:30:46.046Z,95059.03
2023-01-19T03:31:53.917Z,95054.00
2023-01-19T03:33:04.933Z,95055.56
2023-01-19T03:34:12.528Z,95056.34
2023-01-19T03:35:16.738Z,95053.63
2023-01-19T03:36:28.163Z,95062.91
2023-01-19T03:37:32.055Z,95055.22
2023-01-19T03:38:40.262Z,95051.84
2023-01-19T03:39:42.778Z,95051.72
2023-01-19T03:40:50.109Z,95056.81
2023-01-19T03:41:58.761Z,95054.25
2023-01-19T03:43:05.441Z,95054.25
2023-01-19T03:44:08.096Z,95056.75
2023-01-19T03:45:15.365Z,95055.91
2023-01-19T03:46:19.500Z,95062.53
2023-01-19T03:47:25.475Z,95054.06
2023-01-19T03:48:27.582Z,95059.09
2023-01-19T03:49:34.139Z,95060.72
2023-01-19T03:50:36.251Z,95062.41
2023-01-19T03:51:42.003Z,95064.88
2023-01-19T03:52:44.606Z,95061.47
2023-01-19T03:53:50.008Z,95060.59
2023-01-19T03:54:52.190Z,95061.44
2023-01-19T03:55:57.194Z,95068.16
2023-01-19T03:57:01.802Z,95068.97
2023-01-19T03:58:06.545Z,95067.25
2023-01-19T03:59:08.659Z,95067.28
2023-01-19T04:00:15.251Z,95067.31
2023-01-19T04:01:20.824Z,95074.09
2023-01-19T04:02:25.962Z,95070.78
2023-01-19T04:03:28.686Z,95067.41
2023-01-19T04:04:33.368Z,95064.88
2023-01-19T04:05:35.474Z,95060.72
2023-01-19T04:06:40.085Z,95067.44
2023-01-19T04:07:42.094Z,95066.56
2023-01-19T04:08:47.152Z,95071.59
2023-01-19T04:09:49.168Z,95065.63
2023-01-19T04:10:53.855Z,95069.03
2023-01-19T04:11:57.267Z,95063.09
2023-01-19T04:13:05.127Z,95062.22
2023-01-19T04:14:07.300Z,95069.84
2023-01-19T04:15:12.174Z,95066.53
2023-01-19T04:16:14.365Z,95063.09
2023-01-19T04:17:19.058Z,95059.72
2023-01-19T04:18:21.096Z,95063.97
2023-01-19T04:19:25.835Z,95057.22
2023-01-19T04:20:29.250Z,95062.31
2023-01-19T04:21:33.873Z,95059.81
2023-01-19T04:22:36.008Z,95069.06
2023-01-19T04:23:40.609Z,95067.41
2023-01-19T04:24:42.618Z,95066.56
2023-01-19T04:25:47.305Z,95069.06
2023-01-19T04:26:52.068Z,95076.72
2023-01-19T04:27:58.461Z,95064.09
2023-01-19T04:29:03.086Z,95071.69
2023-01-19T04:30:10.076Z,95075.03
2023-01-19T04:31:12.592Z,95069.97
2023-01-19T04:32:17.605Z,95062.41
2023-01-19T04:33:19.696Z,95076.78
2023-01-19T04:34:24.408Z,95064.97
2023-01-19T04:35:26.467Z,95064.94
2023-01-19T04:36:31.407Z,95067.47
2023-01-19T04:37:33.418Z,95064.13
2023-01-19T04:38:38.670Z,95064.97
2023-01-19T04:39:43.249Z,95071.72
2023-01-19T04:40:45.302Z,95065.81
2023-01-19T04:41:51.706Z,95062.47
2023-01-19T04:44:52.050Z,95074.31
2023-01-19T04:45:54.088Z,95071.88
2023-01-19T04:46:58.741Z,95066.03
2023-01-19T04:48:00.949Z,95069.47
2023-01-19T04:49:05.614Z,95071.22
2023-01-19T04:50:09.281Z,95076.28
2023-01-19T04:51:13.951Z,95072.13
2023-01-19T04:52:15.959Z,95074.72
2023-01-19T04:53:20.869Z,95071.41
2023-01-19T04:54:23.038Z,95075.78
2023-01-19T04:55:27.960Z,95074.13
2023-01-19T04:56:30.234Z,95080.81
2023-01-19T04:57:35.059Z,95063.97
2023-01-19T04:58:37.131Z,95072.28
2023-01-19T04:59:41.998Z,95073.91
2023-01-19T05:00:46.736Z,95069.72
2023-01-19T05:01:51.492Z,95083.34
2023-01-19T05:02:53.727Z,95079.16
2023-01-19T05:04:01.127Z,95073.16
2023-01-19T05:05:06.049Z,95070.59
2023-01-19T05:06:10.849Z,95074.78
2023-01-19T05:07:13.086Z,95073.25
2023-01-19T05:08:17.840Z,95079.09
2023-01-19T05:09:19.930Z,95079.97
2023-01-19T05:10:24.760Z,95086.69
2023-01-19T05:11:26.991Z,95090.84
2023-01-19T05:12:31.672Z,95093.38
2023-01-19T05:13:33.736Z,95088.25
2023-01-19T05:14:38.908Z,95088.31
2023-01-19T05:15:40.881Z,95087.41
2023-01-19T05:16:48.144Z,95095.88
2023-01-19T05:17:50.289Z,95095.91
2023-01-19T05:18:54.969Z,95094.28
2023-01-19T05:19:56.963Z,95098.50
2023-01-19T05:21:01.576Z,95096.00
2023-01-19T05:22:04.384Z,95095.22
2023-01-19T05:23:09.230Z,95101.03
2023-01-19T05:24:11.535Z,95100.22
2023-01-19T05:25:16.241Z,95092.59
2023-01-19T05:26:18.584Z,95096.81
2023-01-19T05:27:23.224Z,95095.13
2023-01-19T05:28:25.199Z,95100.19
2023-01-19T05:29:29.813Z,95100.19
2023-01-19T05:30:31.978Z,95106.13
2023-01-19T05:31:37.253Z,95106.97
2023-01-19T05:32:42.204Z,95105.19
2023-01-19T05:33:46.841Z,95107.63
2023-01-19T05:34:51.525Z,95104.22
2023-01-19T05:35:54.669Z,95102.50
2023-01-19T05:36:59.482Z,95102.47
2023-01-19T05:38:01.952Z,95101.59
2023-01-19T05:39:06.845Z,95096.50
2023-01-19T05:40:10.964Z,95106.56
2023-01-19T05:41:15.629Z,95095.47
2023-01-19T05:42:17.749Z,95096.25
2023-01-19T05:43:22.360Z,95096.34
2023-01-19T05:44:27.038Z,95098.06
2023-01-19T05:45:31.809Z,95093.81
2023-01-19T05:46:34.470Z,95091.19
2023-01-19T05:47:40.025Z,95093.78
2023-01-19T05:48:47.334Z,95097.22
2023-01-19T05:49:52.003Z,95091.44
2023-01-19T05:50:57.779Z,95098.16
2023-01-19T05:52:02.455Z,95094.00
2023-01-19T05:53:04.540Z,95092.34
2023-01-19T05:54:10.499Z,95092.38
2023-01-19T05:55:13.346Z,95098.25
2023-01-19T05:56:19.023Z,95095.69
2023-01-19T05:57:21.307Z,95104.19
2023-01-19T05:58:25.975Z,95104.94
2023-01-19T05:59:28.058Z,95109.19
2023-01-19T06:00:32.727Z,95112.63
2023-01-19T06:01:37.427Z,95106.66
2023-01-19T06:02:43.671Z,95111.72
2023-01-19T06:03:48.992Z,95110.84
2023-01-19T06:04:53.629Z,95108.38
2023-01-19T06:05:58.094Z,95107.56
2023-01-19T06:07:02.996Z,95105.91
2023-01-19T06:08:05.661Z,95106.72
2023-01-19T06:09:10.842Z,95110.97
2023-01-19T06:10:13.016Z,95111.16
2023-01-19T06:11:17.666Z,95107.91
2023-01-19T06:12:19.805Z,95109.63
2023-01-19T06:13:24.598Z,95106.31
2023-01-19T06:14:26.886Z,95116.47
2023-01-19T06:15:31.514Z,95117.31
2023-01-19T06:16:33.661Z,95114.78
2023-01-19T06:17:38.493Z,95121.53
2023-01-19T06:18:43.169Z,95125.75
2023-01-19T06:19:47.809Z,95122.41
2023-01-19T06:20:52.767Z,95124.16
2023-01-19T06:21:54.825Z,95130.00
2023-01-19T06:23:00.306Z,95129.09
2023-01-19T06:24:03.674Z,95125.69
2023-01-19T06:25:09.216Z,95127.41
2023-01-19T06:26:11.407Z,95125.78
2023-01-19T06:27:16.060Z,95127.47
2023-01-19T06:28:18.427Z,95127.34
2023-01-19T06:29:23.217Z,95125.69
2023-01-19T06:30:25.446Z,95128.16
2023-01-19T06:31:30.249Z,95123.94
2023-01-19T06:32:35.343Z,95118.81
2023-01-19T06:33:40.031Z,95124.78
2023-01-19T06:34:44.755Z,95123.91
2023-01-19T06:35:51.226Z,95120.47
2023-01-19T06:36:55.869Z,95124.66
2023-01-19T06:37:57.887Z,95128.94
2023-01-19T06:39:03.476Z,95130.66
2023-01-19T06:40:07.111Z,95126.47
2023-01-19T06:41:11.710Z,95133.97
2023-01-19T06:42:13.828Z,95128.97
2023-01-19T06:43:20.378Z,95138.25
2023-01-19T06:44:26.047Z,95130.69
2023-01-19T06:45:30.836Z,95129.84
2023-01-19T06:46:33.044Z,95136.63
2023-01-19T06:47:37.736Z,95137.53
2023-01-19T06:48:39.985Z,95144.28
2023-01-19T06:49:44.764Z,95136.66
2023-01-19T06:50:50.203Z,95136.56
2023-01-19T06:51:54.935Z,95134.88
2023-01-19T06:52:57.204Z,95133.19
2023-01-19T06:54:02.020Z,95134.00
2023-01-19T06:55:04.918Z,95136.53
2023-01-19T06:56:10.326Z,95144.09
2023-01-19T06:57:12.891Z,95138.22
2023-01-19T06:58:17.661Z,95140.75
2023-01-19T06:59:19.684Z,95147.53
2023-01-19T07:00:24.791Z,95149.25
2023-01-19T07:01:29.677Z,95140.88
2023-01-19T07:02:31.850Z,95147.69
2023-01-19T07:03:38.755Z,95147.72
2023-01-19T07:04:41.019Z,95152.03
2023-01-19T07:05:45.794Z,95155.44
2023-01-19T07:06:50.578Z,95151.28
2023-01-19T07:07:55.444Z,95153.00
2023-01-19T07:08:58.044Z,95154.59
2023-01-19T07:10:02.636Z,95165.59
2023-01-19T07:11:26.139Z,95158.00
2023-01-19T07:12:31.360Z,95163.97
2023-01-19T07:13:36.656Z,95166.53
2023-01-19T07:14:38.826Z,95168.19
2023-01-19T07:15:43.767Z,95169.91
2023-01-19T07:16:48.474Z,95168.22
2023-01-19T07:17:53.146Z,95173.28
2023-01-19T07:18:55.676Z,95168.25
2023-01-19T07:20:00.343Z,95174.97
2023-01-19T07:21:02.368Z,95173.31
2023-01-19T07:22:09.629Z,95171.66
2023-01-19T07:23:11.829Z,95173.38
2023-01-19T07:24:16.584Z,95170.03
2023-01-19T07:25:18.631Z,95173.41
2023-01-19T07:26:25.396Z,95180.97
2023-01-19T07:27:28.113Z,95181.81
2023-01-19T07:28:33.732Z,95180.97
2023-01-19T07:29:35.802Z,95180.97
2023-01-19T07:30:40.507Z,95180.16
2023-01-19T07:31:45.532Z,95180.16
2023-01-19T07:32:47.595Z,95180.13
2023-01-19T07:33:52.167Z,95180.16
2023-01-19T07:34:54.369Z,95180.19
2023-01-19T07:35:58.906Z,95178.50
2023-01-19T07:37:01.010Z,95182.72
2023-01-19T07:38:08.395Z,95182.69
2023-01-19T07:39:10.583Z,95188.56
2023-01-19T07:40:15.882Z,95178.47
2023-01-19T07:41:18.036Z,95174.25
2023-01-19T07:42:22.817Z,95176.75
2023-01-19T07:43:25.064Z,95175.09
2023-01-19T07:44:29.889Z,95187.72
2023-01-19T07:45:35.501Z,95185.19
2023-01-19T07:46:37.572Z,95190.19
2023-01-19T07:49:00.958Z,95195.19
2023-01-19T07:50:05.703Z,95186.78
2023-01-19T07:51:11.768Z,95190.16
2023-01-19T07:52:17.331Z,95191.00
2023-01-19T07:53:24.730Z,95193.50
2023-01-19T07:54:26.796Z,95199.34
2023-01-19T07:55:31.394Z,95196.00
2023-01-19T07:56:36.055Z,95190.06
2023-01-19T07:57:38.105Z,95191.75
2023-01-19T07:58:42.930Z,95195.91
2023-01-19T07:59:44.942Z,95201.81
2023-01-19T08:00:50.497Z,95190.00
2023-01-19T08:01:54.354Z,95197.50
2023-01-19T08:03:02.841Z,95192.38
2023-01-19T08:04:08.557Z,95196.56
2023-01-19T08:05:10.774Z,95196.50
2023-01-19T08:06:22.898Z,95189.69
2023-01-19T08:07:27.801Z,95196.38
2023-01-19T08:08:36.078Z,95190.47
2023-01-19T08:09:40.713Z,95189.50
2023-01-19T08:10:42.687Z,95184.41
2023-01-19T08:11:47.441Z,95195.34
2023-01-19T08:12:52.035Z,95188.53
2023-01-19T08:13:54.073Z,95188.50
2023-01-19T08:14:58.744Z,95185.09
2023-01-19T08:16:00.911Z,95195.19
2023-01-19T08:17:06.771Z,95199.41
2023-01-19T08:18:11.587Z,95198.56
2023-01-19T08:19:16.266Z,95192.66
2023-01-19T08:20:18.474Z,95197.72
2023-01-19T08:21:23.283Z,95190.97
2023-01-19T08:22:25.422Z,95194.34
2023-01-19T08:23:30.646Z,95197.75
2023-01-19T08:24:38.005Z,95207.91
2023-01-19T08:25:42.365Z,95202.84
2023-01-19T08:26:47.040Z,95201.19
2023-01-19T08:27:49.271Z,95206.25
2023-01-19T08:28:54.027Z,95202.06
2023-01-19T08:29:56.081Z,95201.19
2023-01-19T08:31:11.100Z,95201.19
2023-01-19T08:32:23.615Z,95195.31
2023-01-19T08:33:25.791Z,95203.72
2023-01-19T08:34:31.094Z,95199.50
2023-01-19T08:35:37.213Z,95205.31
2023-01-19T08:36:41.816Z,95200.97
2023-01-19T08:37:43.773Z,95205.84
2023-01-19T08:38:48.810Z,95198.13
2023-01-19T08:39:54.064Z,95199.59
2023-01-19T08:40:58.777Z,95196.00
2023-01-19T08:42:03.436Z,95194.13
2023-01-19T08:43:11.099Z,95196.41
2023-01-19T08:44:13.337Z,95186.13
2023-01-19T08:45:18.287Z,95196.44
2023-01-19T08:46:23.467Z,95195.59
2023-01-19T08:47:25.600Z,95192.00
2023-01-19T08:48:30.387Z,95194.03
2023-01-19T08:49:35.678Z,95200.63
2023-01-19T08:50:37.834Z,95199.94
2023-01-19T08:51:42.516Z,95195.69
2023-01-19T08:52:44.603Z,95199.91
2023-01-19T08:53:49.562Z,95201.72
2023-01-19T08:54:56.900Z,95203.25
2023-01-19T08:56:01.352Z,95203.94
2023-01-19T08:57:06.102Z,95205.16
2023-01-19T08:58:08.976Z,95207.72
2023-01-19T08:59:14.299Z,95203.69
2023-01-19T09:00:17.773Z,95204.56
2023-01-19T09:01:23.151Z,95208.03
2023-01-19T09:02:27.967Z,95206.50
2023-01-19T09:03:32.723Z,95205.09
2023-01-19T09:04:38.133Z,95214.81
2023-01-19T09:05:40.965Z,95205.84
2023-01-19T09:06:45.623Z,95205.75
2023-01-19T09:07:48.346Z,95218.81
2023-01-19T09:08:53.028Z,95204.06
2023-01-19T09:10:00.326Z,95202.25
2023-01-19T09:11:02.853Z,95201.06
2023-01-19T09:12:07.992Z,95203.34
2023-01-19T09:13:11.720Z,95199.81
2023-01-19T09:14:16.357Z,95195.91
2023-01-19T09:15:18.725Z,95189.66
2023-01-19T09:16:23.499Z,95181.03
2023-01-19T09:17:25.731Z,95184.50
2023-01-19T09:18:30.361Z,95183.56
2023-01-19T09:19:33.381Z,95186.13
2023-01-19T09:20:39.790Z,95179.19
2023-01-19T09:21:42.009Z,95173.56
2023-01-19T09:22:47.719Z,95177.09
2023-01-19T09:23:52.423Z,95177.78
2023-01-19T09:24:54.515Z,95173.94
2023-01-19T09:26:03.467Z,95180.94
2023-01-19T09:27:08.124Z,95172.72
2023-01-19T09:28:12.282Z,95174.41
2023-01-19T09:29:16.993Z,95174.19
2023-01-19T09:30:20.078Z,95174.78
2023-01-19T09:31:24.880Z,95177.91
2023-01-19T09:32:29.613Z,95171.00
2023-01-19T09:33:34.305Z,95175.38
2023-01-19T09:34:38.903Z,95186.50
2023-01-19T09:35:44.953Z,95187.53
2023-01-19T09:36:49.976Z,95191.63
2023-01-19T09:37:52.087Z,95183.69
2023-01-19T09:38:56.750Z,95190.88
2023-01-19T09:39:58.999Z,95191.59
2023-01-19T09:41:07.285Z,95188.00
2023-01-19T09:42:21.745Z,95198.06
2023-01-19T09:43:37.651Z,95197.78
2023-01-19T09:44:46.384Z,95191.28
2023-01-19T09:45:52.177Z,95190.06
2023-01-19T09:46:56.931Z,95186.50
2023-01-19T09:48:01.903Z,95183.59
2023-01-19T09:49:14.203Z,95185.31
2023-01-19T09:50:28.994Z,95176.72
2023-01-19T09:51:39.276Z,95192.22
2023-01-19T09:52:47.335Z,95191.69
2023-01-19T09:53:58.583Z,95193.81
2023-01-19T09:55:03.275Z,95195.47
2023-01-19T09:56:11.099Z,95184.34
2023-01-19T09:57:16.836Z,95185.03
2023-01-19T09:58:27.232Z,95175.94
2023-01-19T09:59:34.041Z,95178.19
2023-01-19T10:00:36.241Z,95179.25
2023-01-19T10:01:50.428Z,95188.22
2023-01-19T10:02:59.831Z,95188.41
2023-01-19T10:04:30.208Z,95184.88
2023-01-19T10:05:41.596Z,95189.69
2023-01-19T10:06:44.307Z,95187.59
2023-01-19T10:08:03.722Z,95183.31
2023-01-19T10:09:20.037Z,95191.28
2023-01-19T10:10:27.873Z,95198.78
2023-01-19T10:11:51.515Z,95203.06
2023-01-19T10:13:14.695Z,95202.88
2023-01-19T10:14:26.015Z,95201.81
2023-01-19T10:15:41.024Z,95216.13
2023-01-19T10:16:54.383Z,95219.16
2023-01-19T10:18:10.779Z,95216.53
2023-01-19T10:19:25.086Z,95215.63
2023-01-19T10:20:33.388Z,95218.84
2023-01-19T10:21:44.959Z,95218.97
2023-01-19T10:22:49.694Z,95219.09
2023-01-19T10:23:58.623Z,95214.59
2023-01-19T10:25:06.082Z,95215.97
2023-01-19T10:26:16.802Z,95212.19
2023-01-19T10:27:27.349Z,95214.09
2023-01-19T10:28:32.938Z,95210.88
2023-01-19T10:29:40.272Z,95209.88
2023-01-19T10:30:47.351Z,95210.47
2023-01-19T10:31:55.405Z,95216.56
2023-01-19T10:33:00.436Z,95210.81
2023-01-19T10:34:06.371Z,95202.06
2023-01-19T10:35:15.306Z,95214.09
2023-01-19T10:36:22.338Z,95206.19
2023-01-19T10:37:33.690Z,95206.09
2023-01-19T10:38:36.160Z,95205.69
2023-01-19T10:39:41.373Z,95204.97
2023-01-19T10:40:53.580Z,95210.28
2023-01-19T10:42:00.649Z,95198.41
2023-01-19T10:43:45.902Z,95198.19
2023-01-19T10:44:49.601Z,95204.59
2023-01-19T10:45:54.321Z,95206.03
2023-01-19T10:47:02.246Z,95202.84
2023-01-19T10:48:07.484Z,95200.16
2023-01-19T10:49:28.360Z,95198.00
2023-01-19T10:50:32.384Z,95207.28
2023-01-19T10:51:38.260Z,95206.44
2023-01-19T10:52:44.820Z,95198.00
2023-01-19T10:53:59.280Z,95205.41
2023-01-19T10:55:05.641Z,95200.59
2023-01-19T10:56:20.160Z,95203.53
2023-01-19T10:57:31.335Z,95204.44
2023-01-19T10:58:35.502Z,95200.16
2023-01-19T10:59:51.609Z,95208.97
2023-01-19T11:00:53.955Z,95206.44
2023-01-19T11:02:08.297Z,95201.50
2023-01-19T11:03:26.443Z,95200.44
2023-01-19T11:04:29.362Z,95203.69
2023-01-19T11:05:38.638Z,95202.03
2023-01-19T11:06:43.324Z,95202.03
2023-01-19T11:07:45.395Z,95202.94
2023-01-19T11:08:52.877Z,95203.94
2023-01-19T11:10:22.634Z,95197.91
2023-01-19T11:11:27.561Z,95197.28
2023-01-19T11:12:32.212Z,95197.31
2023-01-19T11:13:34.923Z,95198.78
2023-01-19T11:14:42.260Z,95195.97
2023-01-19T11:15:50.740Z,95198.81
2023-01-19T11:16:58.971Z,95198.75
2023-01-19T11:18:05.552Z,95198.53
2023-01-19T11:19:21.943Z,95191.50
2023-01-19T11:20:30.683Z,95199.72
2023-01-19T11:21:33.376Z,95188.47
2023-01-19T11:22:38.376Z,95196.59
2023-01-19T11:23:50.042Z,95186.31
2023-01-19T11:24:54.566Z,95188.25
2023-01-19T11:26:01.705Z,95187.97
2023-01-19T11:27:06.704Z,95195.81
2023-01-19T11:28:21.607Z,95182.94
2023-01-19T11:29:28.921Z,95182.94
2023-01-19T11:30:38.091Z,95182.19
2023-01-19T11:31:43.224Z,95176.25
2023-01-19T11:32:49.448Z,95182.59
2023-01-19T11:33:53.348Z,95170.72
2023-01-19T11:34:58.023Z,95181.41
2023-01-19T11:36:06.104Z,95171.53
2023-01-19T11:37:30.357Z,95169.31
2023-01-19T11:38:35.825Z,95181.19
2023-01-19T11:39:49.901Z,95179.81
2023-01-19T11:40:55.071Z,95190.09
2023-01-19T11:42:02.754Z,95185.81
2023-01-19T11:43:05.218Z,95190.56
2023-01-19T11:44:21.614Z,95187.44
2023-01-19T11:45:24.117Z,95191.06
2023-01-19T11:46:36.763Z,95192.53
2023-01-19T11:47:43.640Z,95189.72
2023-01-19T11:48:56.713Z,95190.56
2023-01-19T11:50:05.599Z,95178.22
2023-01-19T11:51:16.611Z,95184.69
2023-01-19T11:52:28.707Z,95184.09
2023-01-19T11:53:36.805Z,95180.38
2023-01-19T11:54:50.373Z,95175.66
2023-01-19T11:55:57.306Z,95177.91
2023-01-19T11:57:03.404Z,95178.16
2023-01-19T11:58:08.610Z,95181.19
2023-01-19T11:59:15.659Z,95185.94
2023-01-19T12:00:29.331Z,95178.88
2023-01-19T12:01:39.744Z,95179.06
2023-01-19T12:02:48.077Z,95179.31
2023-01-19T12:03:59.572Z,95180.56
2023-01-19T12:05:12.460Z,95177.34
2023-01-19T12:06:21.764Z,95180.13
2023-01-19T12:07:31.719Z,95181.34
2023-01-19T12:08:39.584Z,95183.22
2023-01-19T12:09:47.819Z,95178.88
2023-01-19T12:10:55.936Z,95176.81
2023-01-19T12:12:04.291Z,95174.59
2023-01-19T12:13:08.978Z,95179.03
2023-01-19T12:14:21.998Z,95181.94
2023-01-19T12:15:35.849Z,95174.50
2023-01-19T12:16:45.991Z,95181.38
2023-01-19T12:17:51.305Z,95179.41
2023-01-19T12:19:02.266Z,95181.13
2023-01-19T12:20:16.817Z,95184.25
2023-01-19T12:21:22.019Z,95188.31
2023-01-19T12:22:29.070Z,95176.91
2023-01-19T12:23:47.447Z,95182.28
2023-01-19T12:24:57.452Z,95173.59
2023-01-19T12:26:24.702Z,95176.56
2023-01-19T12:27:41.970Z,95170.91
2023-01-19T12:28:50.592Z,95177.56
2023-01-19T12:29:57.675Z,95172.88
2023-01-19T12:31:01.102Z,95177.66
2023-01-19T12:32:23.038Z,95181.84
2023-01-19T12:33:34.438Z,95176.56
2023-01-19T12:34:46.787Z,95180.84
2023-01-19T12:35:57.321Z,95175.66
2023-01-19T12:37:06.887Z,95180.88
2023-01-19T12:38:36.347Z,95184.00
2023-01-19T12:39:51.162Z,95170.56
2023-01-19T12:41:16.678Z,95178.22
2023-01-19T12:42:21.615Z,95169.81
2023-01-19T12:43:24.688Z,95165.97
2023-01-19T12:44:34.456Z,95174.59
2023-01-19T12:45:40.695Z,95180.09
2023-01-19T12:46:46.019Z,95179.94
2023-01-19T12:47:57.161Z,95184.31
2023-01-19T12:49:06.561Z,95178.44
2023-01-19T12:50:20.489Z,95181.03
2023-01-19T12:51:23.787Z,95182.63
2023-01-19T12:52:34.341Z,95174.50
2023-01-19T12:53:39.309Z,95176.97
2023-01-19T12:54:50.678Z,95179.47
2023-01-19T12:56:02.614Z,95183.16
2023-01-19T12:57:13.285Z,95168.34
2023-01-19T12:58:20.574Z,95171.06
2023-01-19T12:59:27.012Z,95175.41
2023-01-19T13:00:35.128Z,95174.22
2023-01-19T13:01:40.023Z,95168.50
2023-01-19T13:02:44.783Z,95172.88
2023-01-19T13:04:03.696Z,95180.53
2023-01-19T13:05:27.890Z,95172.13
2023-01-19T13:07:05.892Z,95181.56
2023-01-19T13:08:26.759Z,95181.28
2023-01-19T13:09:30.500Z,95183.66
2023-01-19T13:11:10.869Z,95181.50
2023-01-19T13:12:26.813Z,95185.13
2023-01-19T13:13:30.501Z,95186.28
2023-01-19T13:14:39.645Z,95183.91